world map with DFOO marked

DFOO - Airport

This information may not be accurate or current and is not valid for navigation or flight planning. No warranty of fitness for any purpose is made or implied.

flag of Burkina Faso

Donate via PayPal

Additional information is available on the NEW Great Circle Mapper

Location
City:  Bobo/Dioulasso, Burkina Faso
ICAO / IATA:DFOO / BOY

Details
Type:Airport (Aerodrome, Airfield)
Use:Public/Civil
Latitude:11°09'36"N (11.160056)
Longitude:4°19'51"W (-4.330968)
Datum:WGS 1984
Elevation:1511 ft (461 m)
Runways:1
Longest:10826 × 148 ft (3300 × 45 m)

Time
Timezone:UTC+0 (DST+2)
Local Time:

Weather
METAR:DFOO  041400Z 08006KT 010V120 CAVOK 35/07 Q1011
TAF:DFOO  041100Z 0412/0512 VRB08KT 8000 NSC= TAF LICA 041100Z 0412/0512 08012KT 9999 SCT030 TEMPO 0412/0503 4000 SHRA

Related Locations
Nearby:
Farthest:RTA: 12307 mi / 19807 km
Elsee, Rotuma Island, FJ

Find:

   beyond  
but within

Other Information
Maps:
Sources:

  


 


Great Circle Mapper   Great Circle Mapper
Great Circle Mapper FAQ   Great Circle Mapper FAQ
  Karl's Home Page
KLSē   KLSē Home
   GC on Facebook
Airlines of the World   Airlines of the World
Donate via PayPal


Copyright © 2004-2019, Karl L. Swartz. All rights reserved.
All trademarks mentioned herein belong to their respective owners.

Please see credits for attribution and copyright information.

Karl Swartz <karl@kls2.com>
  Powered by FreeBSD
Valid HTML 4.01!
Labeled with ICRA
hCard Microformat
Geo Microformat